Terminal Aerodrome Forecast
Issued by NWS

Home | Current Version | Previous Version | Text Only | Print | Product List | Glossary On
Versions: 1 2 3 4 5 6 7 8 9 10 11 12 13 14 15
028
FTUS44 KLIX 191123
TAFMCB
TAF
KMCB 191123Z 1912/2012 00000KT 4SM BR SKC
     FM191400 VRB03KT P6SM FEW045 SCT110
     FM191800 VRB03KT P6SM VCTS BKN045CB BKN080
     FM192100 00000KT P6SM BKN045 BKN110 PROB30 1921/2001 4SM -TSRA
      OVC025CB
     FM200600 VRB03KT 5SM BR FEW045 SCT150
     FM201100 00000KT 1SM BR BKN008 BKN045=

USA.gov is the U.S. government's official web portal to all federal, state and local government web resources and services.